Terminal Aerodrome Forecast
Issued by NWS

Home | Current Version | Previous Version | Graphics & Text | Print | Product List | Glossary On
Versions: 1 2 3 4 5 6 7 8 9 10 11 12 13 14 15 16 17 18 19
000
FTUS41 KCLE 191900 AAB
TAFFDY
TAF AMD
KFDY 191958Z 1920/2018 00000KT P6SM SCT025 OVC050
      TEMPO 1920/1922 BKN025
     FM200100 VRB03KT P6SM SCT050
     FM200900 00000KT 1SM BR SCT004
     FM201400 VRB03KT P6SM SCT050=

USA.gov is the U.S. government's official web portal to all federal, state and local government web resources and services.